sensor_id;sensor_type;location;lat;lon;timestamp;temperature;humidity
68011;DHT22;54794;48.348;7.878;2022-12-29T00:01:59;14.50;60.00
68011;DHT22;54794;48.348;7.878;2022-12-29T00:05:08;14.50;60.50
68011;DHT22;54794;48.348;7.878;2022-12-29T00:07:45;14.50;60.40
68011;DHT22;54794;48.348;7.878;2022-12-29T00:10:36;14.50;60.40
68011;DHT22;54794;48.348;7.878;2022-12-29T00:13:22;14.50;60.30
68011;DHT22;54794;48.348;7.878;2022-12-29T00:19:59;14.50;60.20
68011;DHT22;54794;48.348;7.878;2022-12-29T00:23:21;14.50;59.80
68011;DHT22;54794;48.348;7.878;2022-12-29T00:29:43;14.50;59.90
68011;DHT22;54794;48.348;7.878;2022-12-29T00:32:50;14.50;60.70
68011;DHT22;54794;48.348;7.878;2022-12-29T00:42:35;14.60;60.00
68011;DHT22;54794;48.348;7.878;2022-12-29T00:45:58;14.60;59.90
68011;DHT22;54794;48.348;7.878;2022-12-29T00:48:48;14.60;59.70
68011;DHT22;54794;48.348;7.878;2022-12-29T00:54:37;14.70;59.70
68011;DHT22;54794;48.348;7.878;2022-12-29T00:57:54;14.60;59.70
68011;DHT22;54794;48.348;7.878;2022-12-29T01:00:44;14.60;59.20
68011;DHT22;54794;48.348;7.878;2022-12-29T01:03:39;14.70;59.60
68011;DHT22;54794;48.348;7.878;2022-12-29T01:06:56;14.60;59.20
68011;DHT22;54794;48.348;7.878;2022-12-29T01:09:51;14.70;59.50
68011;DHT22;54794;48.348;7.878;2022-12-29T01:13:07;14.70;59.50
68011;DHT22;54794;48.348;7.878;2022-12-29T01:16:20;14.70;59.30
68011;DHT22;54794;48.348;7.878;2022-12-29T01:19:28;14.80;58.90
68011;DHT22;54794;48.348;7.878;2022-12-29T01:22:13;14.80;59.40
68011;DHT22;54794;48.348;7.878;2022-12-29T01:25:19;14.70;59.30
68011;DHT22;54794;48.348;7.878;2022-12-29T01:28:13;14.70;58.40
68011;DHT22;54794;48.348;7.878;2022-12-29T01:31:05;14.80;59.00
68011;DHT22;54794;48.348;7.878;2022-12-29T01:34:05;14.70;59.10
68011;DHT22;54794;48.348;7.878;2022-12-29T01:37:23;14.70;59.00
68011;DHT22;54794;48.348;7.878;2022-12-29T01:40:06;14.70;58.90
68011;DHT22;54794;48.348;7.878;2022-12-29T01:43:37;14.70;58.90
68011;DHT22;54794;48.348;7.878;2022-12-29T01:47:10;14.70;58.60
68011;DHT22;54794;48.348;7.878;2022-12-29T01:50:48;14.70;57.10
68011;DHT22;54794;48.348;7.878;2022-12-29T01:53:49;14.70;58.70
68011;DHT22;54794;48.348;7.878;2022-12-29T01:56:25;14.60;59.00
68011;DHT22;54794;48.348;7.878;2022-12-29T01:59:33;14.60;58.90
68011;DHT22;54794;48.348;7.878;2022-12-29T02:02:42;14.60;58.80
68011;DHT22;54794;48.348;7.878;2022-12-29T02:09:23;14.50;58.60
68011;DHT22;54794;48.348;7.878;2022-12-29T02:12:27;14.60;58.50
68011;DHT22;54794;48.348;7.878;2022-12-29T02:22:51;14.50;58.20
68011;DHT22;54794;48.348;7.878;2022-12-29T02:40:24;14.50;58.80
68011;DHT22;54794;48.348;7.878;2022-12-29T02:51:09;14.50;58.80
68011;DHT22;54794;48.348;7.878;2022-12-29T02:54:19;14.50;58.80
68011;DHT22;54794;48.348;7.878;2022-12-29T02:57:34;14.50;59.00
68011;DHT22;54794;48.348;7.878;2022-12-29T03:00:34;14.50;59.00
68011;DHT22;54794;48.348;7.878;2022-12-29T03:07:53;14.50;59.10
68011;DHT22;54794;48.348;7.878;2022-12-29T03:11:25;14.30;58.80
68011;DHT22;54794;48.348;7.878;2022-12-29T03:18:24;14.40;59.00
68011;DHT22;54794;48.348;7.878;2022-12-29T03:25:03;14.40;58.80
68011;DHT22;54794;48.348;7.878;2022-12-29T03:28:05;14.40;59.00
68011;DHT22;54794;48.348;7.878;2022-12-29T03:31:18;14.40;59.10
68011;DHT22;54794;48.348;7.878;2022-12-29T03:34:16;14.30;59.00
68011;DHT22;54794;48.348;7.878;2022-12-29T03:44:05;14.20;59.10
68011;DHT22;54794;48.348;7.878;2022-12-29T03:46:54;14.20;59.10
68011;DHT22;54794;48.348;7.878;2022-12-29T03:50:03;14.20;59.30
68011;DHT22;54794;48.348;7.878;2022-12-29T03:52:56;14.20;59.30
68011;DHT22;54794;48.348;7.878;2022-12-29T03:55:47;14.30;59.50
68011;DHT22;54794;48.348;7.878;2022-12-29T03:58:27;14.30;59.50
68011;DHT22;54794;48.348;7.878;2022-12-29T04:01:21;14.30;59.50
68011;DHT22;54794;48.348;7.878;2022-12-29T04:04:21;14.50;59.70
68011;DHT22;54794;48.348;7.878;2022-12-29T04:07:13;14.40;59.60
68011;DHT22;54794;48.348;7.878;2022-12-29T04:10:24;14.30;59.50
68011;DHT22;54794;48.348;7.878;2022-12-29T04:13:25;14.40;59.50
68011;DHT22;54794;48.348;7.878;2022-12-29T04:16:35;14.40;59.60
68011;DHT22;54794;48.348;7.878;2022-12-29T04:19:22;14.40;59.40
68011;DHT22;54794;48.348;7.878;2022-12-29T04:22:07;14.40;59.60
68011;DHT22;54794;48.348;7.878;2022-12-29T04:28:57;14.40;59.30
68011;DHT22;54794;48.348;7.878;2022-12-29T04:31:45;14.40;59.50
68011;DHT22;54794;48.348;7.878;2022-12-29T04:34:31;14.40;59.00
68011;DHT22;54794;48.348;7.878;2022-12-29T04:37:23;14.40;59.40
68011;DHT22;54794;48.348;7.878;2022-12-29T04:40:21;14.40;59.30
68011;DHT22;54794;48.348;7.878;2022-12-29T04:43:05;14.40;59.40
68011;DHT22;54794;48.348;7.878;2022-12-29T04:45:51;14.40;59.80
68011;DHT22;54794;48.348;7.878;2022-12-29T04:48:51;14.40;59.50
68011;DHT22;54794;48.348;7.878;2022-12-29T04:51:29;14.40;59.50
68011;DHT22;54794;48.348;7.878;2022-12-29T04:54:25;14.40;59.60
68011;DHT22;54794;48.348;7.878;2022-12-29T04:57:19;14.40;59.50
68011;DHT22;54794;48.348;7.878;2022-12-29T05:03:06;14.40;59.40
68011;DHT22;54794;48.348;7.878;2022-12-29T05:09:56;14.30;59.30
68011;DHT22;54794;48.348;7.878;2022-12-29T05:13:06;14.30;59.30
68011;DHT22;54794;48.348;7.878;2022-12-29T05:19:04;14.30;59.50
68011;DHT22;54794;48.348;7.878;2022-12-29T05:22:11;14.30;59.40
68011;DHT22;54794;48.348;7.878;2022-12-29T05:25:04;14.30;59.40
68011;DHT22;54794;48.348;7.878;2022-12-29T05:31:01;14.30;59.40
68011;DHT22;54794;48.348;7.878;2022-12-29T05:33:44;14.30;59.40
68011;DHT22;54794;48.348;7.878;2022-12-29T05:40:14;14.30;59.40
68011;DHT22;54794;48.348;7.878;2022-12-29T05:43:01;14.20;59.20
68011;DHT22;54794;48.348;7.878;2022-12-29T05:46:12;14.30;59.30
68011;DHT22;54794;48.348;7.878;2022-12-29T05:49:04;14.20;59.00
68011;DHT22;54794;48.348;7.878;2022-12-29T05:52:01;14.30;59.30
68011;DHT22;54794;48.348;7.878;2022-12-29T05:54:39;14.30;59.20
68011;DHT22;54794;48.348;7.878;2022-12-29T05:57:29;14.20;59.20
68011;DHT22;54794;48.348;7.878;2022-12-29T06:00:25;14.20;59.00
68011;DHT22;54794;48.348;7.878;2022-12-29T06:03:45;14.20;59.10
68011;DHT22;54794;48.348;7.878;2022-12-29T06:06:31;14.20;59.10
68011;DHT22;54794;48.348;7.878;2022-12-29T06:09:18;14.30;59.10
68011;DHT22;54794;48.348;7.878;2022-12-29T06:12:24;14.20;59.00
68011;DHT22;54794;48.348;7.878;2022-12-29T06:15:16;14.20;59.00
68011;DHT22;54794;48.348;7.878;2022-12-29T06:18:04;14.30;59.20
68011;DHT22;54794;48.348;7.878;2022-12-29T06:27:29;14.20;59.10
68011;DHT22;54794;48.348;7.878;2022-12-29T06:30:09;14.10;59.00
68011;DHT22;54794;48.348;7.878;2022-12-29T06:32:55;14.20;59.20
68011;DHT22;54794;48.348;7.878;2022-12-29T06:35:58;14.10;58.90
68011;DHT22;54794;48.348;7.878;2022-12-29T06:38:57;14.10;58.80
68011;DHT22;54794;48.348;7.878;2022-12-29T06:41:57;14.10;59.00
68011;DHT22;54794;48.348;7.878;2022-12-29T06:44:54;14.10;58.80
68011;DHT22;54794;48.348;7.878;2022-12-29T06:47:40;14.10;59.00
68011;DHT22;54794;48.348;7.878;2022-12-29T06:50:33;14.10;59.10
68011;DHT22;54794;48.348;7.878;2022-12-29T06:56:19;14.20;59.00
68011;DHT22;54794;48.348;7.878;2022-12-29T06:59:21;14.30;59.10
68011;DHT22;54794;48.348;7.878;2022-12-29T07:02:39;14.20;58.90
68011;DHT22;54794;48.348;7.878;2022-12-29T07:05:36;14.20;59.10
68011;DHT22;54794;48.348;7.878;2022-12-29T07:08:51;14.20;58.90
68011;DHT22;54794;48.348;7.878;2022-12-29T07:11:31;14.20;58.70
68011;DHT22;54794;48.348;7.878;2022-12-29T07:14:18;14.20;59.00
68011;DHT22;54794;48.348;7.878;2022-12-29T07:17:37;14.20;59.00
68011;DHT22;54794;48.348;7.878;2022-12-29T07:20:39;14.30;59.00
68011;DHT22;54794;48.348;7.878;2022-12-29T07:23:44;14.30;59.00
68011;DHT22;54794;48.348;7.878;2022-12-29T07:27:02;14.20;58.80
68011;DHT22;54794;48.348;7.878;2022-12-29T07:29:41;14.20;58.50
68011;DHT22;54794;48.348;7.878;2022-12-29T07:32:45;14.40;58.80
68011;DHT22;54794;48.348;7.878;2022-12-29T07:35:38;14.10;58.40
68011;DHT22;54794;48.348;7.878;2022-12-29T07:38:54;14.40;58.70
68011;DHT22;54794;48.348;7.878;2022-12-29T07:41:43;14.40;58.40
68011;DHT22;54794;48.348;7.878;2022-12-29T07:48:24;14.60;58.70
68011;DHT22;54794;48.348;7.878;2022-12-29T07:54:20;14.60;58.60
68011;DHT22;54794;48.348;7.878;2022-12-29T08:00:31;14.60;58.30
68011;DHT22;54794;48.348;7.878;2022-12-29T08:03:56;14.60;58.50
68011;DHT22;54794;48.348;7.878;2022-12-29T08:06:51;14.60;58.10
68011;DHT22;54794;48.348;7.878;2022-12-29T08:09:42;14.70;58.50
68011;DHT22;54794;48.348;7.878;2022-12-29T08:12:26;14.70;57.90
68011;DHT22;54794;48.348;7.878;2022-12-29T08:15:24;14.90;58.60
68011;DHT22;54794;48.348;7.878;2022-12-29T08:18:25;14.80;58.20
68011;DHT22;54794;48.348;7.878;2022-12-29T08:21:12;14.70;58.40
68011;DHT22;54794;48.348;7.878;2022-12-29T08:24:14;15.10;58.00
68011;DHT22;54794;48.348;7.878;2022-12-29T08:27:42;14.80;58.10
68011;DHT22;54794;48.348;7.878;2022-12-29T08:30:44;14.80;57.90
68011;DHT22;54794;48.348;7.878;2022-12-29T08:34:01;14.80;58.00
68011;DHT22;54794;48.348;7.878;2022-12-29T08:36:51;14.80;57.70
68011;DHT22;54794;48.348;7.878;2022-12-29T08:39:33;14.90;58.30
68011;DHT22;54794;48.348;7.878;2022-12-29T08:42:37;14.90;58.30
68011;DHT22;54794;48.348;7.878;2022-12-29T08:46:00;15.00;58.10
68011;DHT22;54794;48.348;7.878;2022-12-29T08:49:00;15.10;57.90
68011;DHT22;54794;48.348;7.878;2022-12-29T08:51:56;15.10;58.30
68011;DHT22;54794;48.348;7.878;2022-12-29T08:55:05;15.20;57.60
68011;DHT22;54794;48.348;7.878;2022-12-29T08:57:55;15.20;58.30
68011;DHT22;54794;48.348;7.878;2022-12-29T09:01:12;15.20;58.30
68011;DHT22;54794;48.348;7.878;2022-12-29T09:03:53;15.20;57.80
68011;DHT22;54794;48.348;7.878;2022-12-29T09:07:18;15.30;58.00
68011;DHT22;54794;48.348;7.878;2022-12-29T09:10:06;15.40;58.20
68011;DHT22;54794;48.348;7.878;2022-12-29T09:16:01;15.40;58.10
68011;DHT22;54794;48.348;7.878;2022-12-29T09:19:04;15.50;57.80
68011;DHT22;54794;48.348;7.878;2022-12-29T09:21:54;15.50;58.10
68011;DHT22;54794;48.348;7.878;2022-12-29T09:24:46;15.50;58.00
68011;DHT22;54794;48.348;7.878;2022-12-29T09:27:44;15.50;58.20
68011;DHT22;54794;48.348;7.878;2022-12-29T09:31:02;15.40;58.10
68011;DHT22;54794;48.348;7.878;2022-12-29T09:34:04;15.60;58.00
68011;DHT22;54794;48.348;7.878;2022-12-29T09:37:27;15.60;57.70
68011;DHT22;54794;48.348;7.878;2022-12-29T09:40:45;15.60;57.90
68011;DHT22;54794;48.348;7.878;2022-12-29T09:47:02;15.70;57.90
68011;DHT22;54794;48.348;7.878;2022-12-29T09:50:40;15.70;57.80
68011;DHT22;54794;48.348;7.878;2022-12-29T10:09:30;15.90;57.80
68011;DHT22;54794;48.348;7.878;2022-12-29T10:26:36;15.90;57.80
68011;DHT22;54794;48.348;7.878;2022-12-29T10:29:34;15.90;57.90
68011;DHT22;54794;48.348;7.878;2022-12-29T10:33:00;15.90;57.90
68011;DHT22;54794;48.348;7.878;2022-12-29T10:40:43;16.00;58.10
68011;DHT22;54794;48.348;7.878;2022-12-29T10:43:48;16.00;58.00
68011;DHT22;54794;48.348;7.878;2022-12-29T10:47:05;16.00;58.30
68011;DHT22;54794;48.348;7.878;2022-12-29T10:50:00;16.00;58.20
68011;DHT22;54794;48.348;7.878;2022-12-29T10:53:04;15.90;58.20
68011;DHT22;54794;48.348;7.878;2022-12-29T10:56:12;15.90;58.30
68011;DHT22;54794;48.348;7.878;2022-12-29T10:59:46;16.00;58.40
68011;DHT22;54794;48.348;7.878;2022-12-29T11:06:30;15.90;58.70
68011;DHT22;54794;48.348;7.878;2022-12-29T11:09:54;15.90;58.30
68011;DHT22;54794;48.348;7.878;2022-12-29T11:16:40;15.90;58.70
68011;DHT22;54794;48.348;7.878;2022-12-29T11:26:21;15.90;58.50
68011;DHT22;54794;48.348;7.878;2022-12-29T11:29:17;15.90;58.50
68011;DHT22;54794;48.348;7.878;2022-12-29T11:32:29;15.80;58.60
68011;DHT22;54794;48.348;7.878;2022-12-29T11:36:16;15.80;58.60
68011;DHT22;54794;48.348;7.878;2022-12-29T11:39:45;15.90;58.60
68011;DHT22;54794;48.348;7.878;2022-12-29T11:43:11;15.80;58.60
68011;DHT22;54794;48.348;7.878;2022-12-29T11:46:22;15.80;58.60
68011;DHT22;54794;48.348;7.878;2022-12-29T11:48:52;15.80;58.70
68011;DHT22;54794;48.348;7.878;2022-12-29T11:51:26;15.80;58.70
68011;DHT22;54794;48.348;7.878;2022-12-29T11:53:59;15.80;58.80
68011;DHT22;54794;48.348;7.878;2022-12-29T11:56:41;15.80;58.90
68011;DHT22;54794;48.348;7.878;2022-12-29T12:01:58;15.90;59.00
68011;DHT22;54794;48.348;7.878;2022-12-29T12:04:35;15.90;59.00
68011;DHT22;54794;48.348;7.878;2022-12-29T12:11:21;16.00;59.00
68011;DHT22;54794;48.348;7.878;2022-12-29T12:14:58;15.90;58.80
68011;DHT22;54794;48.348;7.878;2022-12-29T12:21:41;16.00;58.70
68011;DHT22;54794;48.348;7.878;2022-12-29T12:24:31;16.00;58.80
68011;DHT22;54794;48.348;7.878;2022-12-29T12:27:19;16.00;58.80
68011;DHT22;54794;48.348;7.878;2022-12-29T12:30:13;16.00;59.30
68011;DHT22;54794;48.348;7.878;2022-12-29T12:33:22;16.00;58.70
68011;DHT22;54794;48.348;7.878;2022-12-29T12:50:51;16.20;58.90
68011;DHT22;54794;48.348;7.878;2022-12-29T13:36:29;16.20;58.80
68011;DHT22;54794;48.348;7.878;2022-12-29T13:43:00;16.20;58.70
68011;DHT22;54794;48.348;7.878;2022-12-29T13:46:23;16.50;58.90
68011;DHT22;54794;48.348;7.878;2022-12-29T13:53:19;16.20;58.80
68011;DHT22;54794;48.348;7.878;2022-12-29T14:10:53;16.40;58.40
68011;DHT22;54794;48.348;7.878;2022-12-29T14:17:25;16.30;58.40
68011;DHT22;54794;48.348;7.878;2022-12-29T14:20:28;16.30;58.40
68011;DHT22;54794;48.348;7.878;2022-12-29T14:23:51;16.20;58.30
68011;DHT22;54794;48.348;7.878;2022-12-29T14:26:51;16.20;58.10
68011;DHT22;54794;48.348;7.878;2022-12-29T14:37:28;16.10;58.30
68011;DHT22;54794;48.348;7.878;2022-12-29T14:40:23;16.10;58.40
68011;DHT22;54794;48.348;7.878;2022-12-29T14:42:54;16.00;58.50
68011;DHT22;54794;48.348;7.878;2022-12-29T14:45:51;16.00;58.50
68011;DHT22;54794;48.348;7.878;2022-12-29T14:56:19;16.00;58.50
68011;DHT22;54794;48.348;7.878;2022-12-29T14:59:40;16.20;58.60
68011;DHT22;54794;48.348;7.878;2022-12-29T15:02:40;16.00;58.70
68011;DHT22;54794;48.348;7.878;2022-12-29T15:10:21;15.90;59.30
68011;DHT22;54794;48.348;7.878;2022-12-29T15:13:52;15.90;59.30
68011;DHT22;54794;48.348;7.878;2022-12-29T15:16:36;15.80;59.20
68011;DHT22;54794;48.348;7.878;2022-12-29T15:19:03;15.80;59.20
68011;DHT22;54794;48.348;7.878;2022-12-29T15:22:12;15.70;59.60
68011;DHT22;54794;48.348;7.878;2022-12-29T15:25:03;15.70;59.60
68011;DHT22;54794;48.348;7.878;2022-12-29T15:28:06;15.50;59.90
68011;DHT22;54794;48.348;7.878;2022-12-29T15:34:38;15.30;59.80
68011;DHT22;54794;48.348;7.878;2022-12-29T15:44:47;15.10;60.30
68011;DHT22;54794;48.348;7.878;2022-12-29T15:48:10;15.10;59.90
68011;DHT22;54794;48.348;7.878;2022-12-29T15:51:42;15.00;60.20
68011;DHT22;54794;48.348;7.878;2022-12-29T15:54:44;14.90;60.30
68011;DHT22;54794;48.348;7.878;2022-12-29T15:58:00;14.90;60.30
68011;DHT22;54794;48.348;7.878;2022-12-29T16:01:15;14.90;60.30
68011;DHT22;54794;48.348;7.878;2022-12-29T16:15:46;15.10;60.90
68011;DHT22;54794;48.348;7.878;2022-12-29T16:19:08;14.70;60.60
68011;DHT22;54794;48.348;7.878;2022-12-29T16:25:48;14.70;60.70
68011;DHT22;54794;48.348;7.878;2022-12-29T16:40:30;14.70;60.80
68011;DHT22;54794;48.348;7.878;2022-12-29T16:47:42;14.70;61.10
68011;DHT22;54794;48.348;7.878;2022-12-29T16:57:55;14.50;61.20
68011;DHT22;54794;48.348;7.878;2022-12-29T17:01:16;14.60;61.20
68011;DHT22;54794;48.348;7.878;2022-12-29T17:08:00;14.40;60.90
68011;DHT22;54794;48.348;7.878;2022-12-29T17:10:59;14.40;61.10
68011;DHT22;54794;48.348;7.878;2022-12-29T17:17:53;14.40;61.70
68011;DHT22;54794;48.348;7.878;2022-12-29T17:28:51;14.20;61.60
68011;DHT22;54794;48.348;7.878;2022-12-29T17:38:51;14.40;61.90
68011;DHT22;54794;48.348;7.878;2022-12-29T17:42:26;14.20;61.80
68011;DHT22;54794;48.348;7.878;2022-12-29T17:45:37;14.10;61.70
68011;DHT22;54794;48.348;7.878;2022-12-29T17:48:32;14.10;61.70
68011;DHT22;54794;48.348;7.878;2022-12-29T17:51:50;14.10;62.00
68011;DHT22;54794;48.348;7.878;2022-12-29T17:55:08;14.10;61.70
68011;DHT22;54794;48.348;7.878;2022-12-29T18:01:29;14.10;62.10
68011;DHT22;54794;48.348;7.878;2022-12-29T18:04:39;14.10;61.90
68011;DHT22;54794;48.348;7.878;2022-12-29T18:11:41;14.10;62.20
68011;DHT22;54794;48.348;7.878;2022-12-29T18:15:32;14.00;62.10
68011;DHT22;54794;48.348;7.878;2022-12-29T18:18:36;14.10;62.10
68011;DHT22;54794;48.348;7.878;2022-12-29T18:22:07;14.00;62.00
68011;DHT22;54794;48.348;7.878;2022-12-29T18:26:12;14.00;62.30
68011;DHT22;54794;48.348;7.878;2022-12-29T18:29:45;13.80;62.10
68011;DHT22;54794;48.348;7.878;2022-12-29T18:37:17;13.70;62.30
68011;DHT22;54794;48.348;7.878;2022-12-29T18:40:15;13.70;62.50
68011;DHT22;54794;48.348;7.878;2022-12-29T18:43:42;13.70;62.60
68011;DHT22;54794;48.348;7.878;2022-12-29T18:47:09;13.80;62.30
68011;DHT22;54794;48.348;7.878;2022-12-29T18:53:37;13.70;62.60
68011;DHT22;54794;48.348;7.878;2022-12-29T18:56:46;13.60;62.30
68011;DHT22;54794;48.348;7.878;2022-12-29T18:59:42;13.60;62.30
68011;DHT22;54794;48.348;7.878;2022-12-29T19:06:31;13.60;63.10
68011;DHT22;54794;48.348;7.878;2022-12-29T19:09:26;13.50;62.50
68011;DHT22;54794;48.348;7.878;2022-12-29T19:12:32;13.50;62.90
68011;DHT22;54794;48.348;7.878;2022-12-29T19:21:50;13.40;62.70
68011;DHT22;54794;48.348;7.878;2022-12-29T19:24:22;13.40;63.00
68011;DHT22;54794;48.348;7.878;2022-12-29T19:27:53;13.40;62.70
68011;DHT22;54794;48.348;7.878;2022-12-29T19:31:07;13.40;63.10
68011;DHT22;54794;48.348;7.878;2022-12-29T19:38:16;13.40;63.40
68011;DHT22;54794;48.348;7.878;2022-12-29T19:41:13;13.40;62.70
68011;DHT22;54794;48.348;7.878;2022-12-29T19:44:42;13.40;63.00
68011;DHT22;54794;48.348;7.878;2022-12-29T19:48:14;13.40;62.90
68011;DHT22;54794;48.348;7.878;2022-12-29T19:51:58;13.40;63.60
68011;DHT22;54794;48.348;7.878;2022-12-29T19:54:28;13.40;63.60
68011;DHT22;54794;48.348;7.878;2022-12-29T20:01:42;13.30;63.60
68011;DHT22;54794;48.348;7.878;2022-12-29T20:04:30;13.30;63.60
68011;DHT22;54794;48.348;7.878;2022-12-29T20:08:39;13.30;63.30
68011;DHT22;54794;48.348;7.878;2022-12-29T20:11:48;13.30;63.70
68011;DHT22;54794;48.348;7.878;2022-12-29T20:15:00;13.30;63.40
68011;DHT22;54794;48.348;7.878;2022-12-29T20:22:29;13.30;63.70
68011;DHT22;54794;48.348;7.878;2022-12-29T20:29:41;13.30;63.80
68011;DHT22;54794;48.348;7.878;2022-12-29T20:37:20;13.10;63.70
68011;DHT22;54794;48.348;7.878;2022-12-29T20:40:36;13.30;63.90
68011;DHT22;54794;48.348;7.878;2022-12-29T20:47:37;13.20;63.30
68011;DHT22;54794;48.348;7.878;2022-12-29T20:54:56;13.20;63.60
68011;DHT22;54794;48.348;7.878;2022-12-29T20:58:39;13.20;63.70
68011;DHT22;54794;48.348;7.878;2022-12-29T21:05:35;13.20;63.90
68011;DHT22;54794;48.348;7.878;2022-12-29T21:08:50;13.10;63.90
68011;DHT22;54794;48.348;7.878;2022-12-29T21:12:02;13.00;63.80
68011;DHT22;54794;48.348;7.878;2022-12-29T21:15:01;13.00;63.80
68011;DHT22;54794;48.348;7.878;2022-12-29T21:18:10;13.00;63.70
68011;DHT22;54794;48.348;7.878;2022-12-29T21:21:23;13.00;63.90
68011;DHT22;54794;48.348;7.878;2022-12-29T21:23:51;13.00;63.70
68011;DHT22;54794;48.348;7.878;2022-12-29T21:27:22;13.00;63.70
68011;DHT22;54794;48.348;7.878;2022-12-29T21:30:27;13.00;64.20
68011;DHT22;54794;48.348;7.878;2022-12-29T21:33:31;13.00;63.90
68011;DHT22;54794;48.348;7.878;2022-12-29T21:40:21;12.80;64.00
68011;DHT22;54794;48.348;7.878;2022-12-29T21:43:08;12.90;63.80
68011;DHT22;54794;48.348;7.878;2022-12-29T21:45:58;12.90;63.70
68011;DHT22;54794;48.348;7.878;2022-12-29T21:49:36;12.90;63.80
68011;DHT22;54794;48.348;7.878;2022-12-29T21:52:35;12.90;63.80
68011;DHT22;54794;48.348;7.878;2022-12-29T21:55:47;12.80;63.90
68011;DHT22;54794;48.348;7.878;2022-12-29T21:59:15;12.80;64.00
68011;DHT22;54794;48.348;7.878;2022-12-29T22:02:31;12.80;63.90
68011;DHT22;54794;48.348;7.878;2022-12-29T22:05:46;12.80;64.20
68011;DHT22;54794;48.348;7.878;2022-12-29T22:09:28;12.70;64.00
68011;DHT22;54794;48.348;7.878;2022-12-29T22:12:41;12.70;63.80
68011;DHT22;54794;48.348;7.878;2022-12-29T22:15:55;12.60;64.30
68011;DHT22;54794;48.348;7.878;2022-12-29T22:19:09;12.60;64.00
68011;DHT22;54794;48.348;7.878;2022-12-29T22:22:23;12.60;64.50
68011;DHT22;54794;48.348;7.878;2022-12-29T22:25:15;12.60;64.70
68011;DHT22;54794;48.348;7.878;2022-12-29T22:28:18;12.60;64.50
68011;DHT22;54794;48.348;7.878;2022-12-29T22:31:49;12.50;64.50
68011;DHT22;54794;48.348;7.878;2022-12-29T22:35:04;12.20;64.20
68011;DHT22;54794;48.348;7.878;2022-12-29T22:38:04;12.70;64.40
68011;DHT22;54794;48.348;7.878;2022-12-29T22:52:16;12.60;64.20
68011;DHT22;54794;48.348;7.878;2022-12-29T22:55:41;12.60;64.60
68011;DHT22;54794;48.348;7.878;2022-12-29T22:58:49;12.80;64.60
68011;DHT22;54794;48.348;7.878;2022-12-29T23:02:03;12.60;64.60
68011;DHT22;54794;48.348;7.878;2022-12-29T23:05:04;12.60;64.40
68011;DHT22;54794;48.348;7.878;2022-12-29T23:08:07;12.60;64.60
68011;DHT22;54794;48.348;7.878;2022-12-29T23:15:01;12.50;64.60
68011;DHT22;54794;48.348;7.878;2022-12-29T23:18:23;12.60;64.40
68011;DHT22;54794;48.348;7.878;2022-12-29T23:21:36;12.60;64.50
68011;DHT22;54794;48.348;7.878;2022-12-29T23:24:13;12.60;64.40
68011;DHT22;54794;48.348;7.878;2022-12-29T23:26:53;12.60;64.60
68011;DHT22;54794;48.348;7.878;2022-12-29T23:30:17;12.50;64.50
68011;DHT22;54794;48.348;7.878;2022-12-29T23:40:02;12.90;64.60
68011;DHT22;54794;48.348;7.878;2022-12-29T23:43:24;12.60;64.60
68011;DHT22;54794;48.348;7.878;2022-12-29T23:50:17;12.80;65.10
68011;DHT22;54794;48.348;7.878;2022-12-29T23:57:22;12.40;65.10
